createdAt,value
2022-10-03T00:02:18.113Z,17.00
2022-10-03T00:05:11.852Z,16.80
2022-10-03T00:08:16.171Z,16.70
2022-10-03T00:11:25.337Z,16.60
2022-10-03T00:14:01.612Z,16.50
2022-10-03T00:17:11.202Z,16.60
2022-10-03T00:20:02.795Z,16.70
2022-10-03T00:22:46.422Z,16.70
2022-10-03T00:25:44.683Z,16.60
2022-10-03T00:28:26.938Z,16.50
2022-10-03T00:31:16.366Z,16.40
2022-10-03T00:34:13.112Z,16.30
2022-10-03T00:36:43.424Z,16.20
2022-10-03T00:39:23.073Z,16.30
2022-10-03T00:42:19.928Z,16.30
2022-10-03T00:45:24.079Z,16.30
2022-10-03T00:48:22.958Z,16.40
2022-10-03T00:51:19.628Z,16.30
2022-10-03T00:53:59.079Z,16.40
2022-10-03T00:56:58.948Z,16.40
2022-10-03T01:00:13.778Z,16.40
2022-10-03T01:02:47.068Z,16.40
2022-10-03T01:05:45.659Z,16.40
2022-10-03T01:08:31.218Z,16.40
2022-10-03T01:11:26.349Z,16.40
2022-10-03T01:14:25.559Z,16.50
2022-10-03T01:17:17.649Z,16.40
2022-10-03T01:20:07.838Z,16.40
2022-10-03T01:23:02.778Z,16.50
2022-10-03T01:25:47.449Z,16.50
2022-10-03T01:28:39.028Z,16.60
2022-10-03T01:31:10.612Z,16.70
2022-10-03T01:33:43.770Z,16.70
2022-10-03T01:36:36.209Z,16.80
2022-10-03T01:39:15.369Z,16.80
2022-10-03T01:42:31.777Z,16.90
2022-10-03T01:45:04.608Z,16.90
2022-10-03T01:48:04.036Z,16.80
2022-10-03T01:50:46.668Z,16.80
2022-10-03T01:53:47.449Z,16.60
2022-10-03T01:56:46.038Z,16.50
2022-10-03T02:00:05.288Z,16.50
2022-10-03T02:02:57.079Z,16.40
2022-10-03T02:06:07.018Z,16.30
2022-10-03T02:08:57.172Z,16.30
2022-10-03T02:11:39.625Z,16.20
2022-10-03T02:14:40.669Z,16.10
2022-10-03T02:17:38.052Z,16.10
2022-10-03T02:20:18.679Z,16.10
2022-10-03T02:22:51.868Z,16.00
2022-10-03T02:25:22.169Z,16.00
2022-10-03T02:28:45.150Z,16.00
2022-10-03T02:31:44.124Z,15.90
2022-10-03T02:34:32.868Z,15.80
2022-10-03T02:37:34.269Z,15.70
2022-10-03T02:40:11.058Z,15.50
2022-10-03T02:43:03.289Z,15.50
2022-10-03T02:45:51.003Z,15.60
2022-10-03T02:48:55.829Z,15.80
2022-10-03T02:51:35.338Z,15.90
2022-10-03T02:54:40.472Z,16.00
2022-10-03T02:57:17.969Z,16.00
2022-10-03T03:00:09.378Z,15.90
2022-10-03T03:02:55.618Z,15.90
2022-10-03T03:05:38.538Z,15.90
2022-10-03T03:08:26.821Z,15.90
2022-10-03T03:11:19.008Z,15.90
2022-10-03T03:14:10.890Z,15.90
2022-10-03T03:17:22.049Z,15.90
2022-10-03T03:19:55.796Z,15.80
2022-10-03T03:22:35.628Z,15.80
2022-10-03T03:25:14.730Z,15.80
2022-10-03T03:27:55.473Z,15.80
2022-10-03T03:30:29.738Z,15.80
2022-10-03T03:33:25.238Z,15.90
2022-10-03T03:36:37.879Z,15.90
2022-10-03T03:39:39.033Z,15.90
2022-10-03T03:42:30.101Z,16.00
2022-10-03T03:45:19.642Z,16.20
2022-10-03T03:48:03.718Z,16.20
2022-10-03T03:50:31.819Z,16.30
2022-10-03T03:53:24.469Z,16.30
2022-10-03T03:56:16.766Z,16.40
2022-10-03T03:58:51.659Z,16.40
2022-10-03T04:01:38.105Z,16.50
2022-10-03T04:04:24.401Z,16.50
2022-10-03T04:07:20.819Z,16.60
2022-10-03T04:10:07.528Z,16.70
2022-10-03T04:12:46.857Z,16.70
2022-10-03T04:15:34.477Z,16.80
2022-10-03T04:18:41.518Z,16.80
2022-10-03T04:21:36.962Z,16.80
2022-10-03T04:24:49.317Z,16.80
2022-10-03T04:27:25.377Z,16.80
2022-10-03T04:30:10.667Z,16.70
2022-10-03T04:32:50.137Z,16.70
2022-10-03T04:35:28.525Z,16.60
2022-10-03T04:38:15.930Z,16.70
2022-10-03T04:41:03.348Z,16.70
2022-10-03T04:44:08.910Z,16.70
2022-10-03T04:46:51.221Z,16.70
2022-10-03T04:49:46.518Z,16.70
2022-10-03T04:52:33.560Z,16.70
2022-10-03T04:55:26.237Z,16.80
2022-10-03T04:58:05.590Z,16.80
2022-10-03T05:00:48.381Z,16.80
2022-10-03T05:03:41.947Z,16.80
2022-10-03T05:06:39.097Z,16.80
2022-10-03T05:09:38.470Z,16.80
2022-10-03T05:12:30.137Z,16.80
2022-10-03T05:15:00.397Z,16.80
2022-10-03T05:17:50.812Z,16.80
2022-10-03T05:20:28.348Z,16.80
2022-10-03T05:23:04.837Z,16.80
2022-10-03T05:25:32.297Z,16.80
2022-10-03T05:28:03.593Z,16.80
2022-10-03T05:30:45.150Z,16.90
2022-10-03T05:33:32.607Z,16.90
2022-10-03T05:36:29.027Z,16.90
2022-10-03T05:39:17.937Z,16.90
2022-10-03T05:42:22.717Z,16.90
2022-10-03T05:45:03.068Z,16.90
2022-10-03T05:47:49.637Z,16.80
2022-10-03T05:50:42.747Z,16.80
2022-10-03T05:53:16.028Z,16.80
2022-10-03T05:55:53.124Z,16.80
2022-10-03T05:58:32.796Z,16.90
2022-10-03T06:01:19.027Z,16.80
2022-10-03T06:04:00.810Z,16.70
2022-10-03T06:06:45.426Z,16.70
2022-10-03T06:09:43.639Z,16.60
2022-10-03T06:12:28.298Z,16.60
2022-10-03T06:15:20.768Z,16.50
2022-10-03T06:18:03.457Z,16.60
2022-10-03T06:20:46.187Z,16.60
2022-10-03T06:23:58.258Z,16.60
2022-10-03T06:26:44.456Z,16.60
2022-10-03T06:29:54.687Z,16.70
2022-10-03T06:32:28.168Z,16.70
2022-10-03T06:35:14.775Z,16.70
2022-10-03T06:38:00.727Z,16.70
2022-10-03T06:41:04.483Z,16.70
2022-10-03T06:44:09.150Z,16.70
2022-10-03T06:46:39.058Z,16.60
2022-10-03T06:49:18.284Z,16.60
2022-10-03T06:52:20.520Z,16.60
2022-10-03T06:55:15.330Z,16.60
2022-10-03T06:58:04.855Z,16.60
2022-10-03T07:00:41.190Z,16.60
2022-10-03T07:03:36.730Z,16.50
2022-10-03T07:06:41.230Z,16.60
2022-10-03T07:09:17.379Z,16.60
2022-10-03T07:12:18.075Z,16.80
2022-10-03T07:15:11.005Z,16.90
2022-10-03T07:17:46.501Z,16.90
2022-10-03T07:20:44.780Z,17.00
2022-10-03T07:23:44.060Z,17.00
2022-10-03T07:26:37.720Z,17.00
2022-10-03T07:29:30.452Z,17.00
2022-10-03T07:36:06.100Z,16.90
2022-10-03T07:39:11.160Z,17.00
2022-10-03T07:42:00.997Z,17.10
2022-10-03T07:44:56.290Z,17.20
2022-10-03T07:48:00.491Z,17.30
2022-10-03T07:50:46.382Z,17.40
2022-10-03T07:53:31.703Z,17.50
2022-10-03T07:56:09.668Z,17.60
2022-10-03T07:58:56.146Z,17.80
2022-10-03T08:01:43.148Z,17.90
2022-10-03T08:04:22.210Z,18.10
2022-10-03T08:07:10.340Z,18.30
2022-10-03T08:09:55.895Z,18.60
2022-10-03T08:12:33.870Z,18.90
2022-10-03T08:15:11.671Z,19.20
2022-10-03T08:18:00.380Z,19.50
2022-10-03T08:20:51.419Z,19.80
2022-10-03T08:23:30.961Z,20.00
2022-10-03T08:26:06.991Z,20.20
2022-10-03T08:28:34.255Z,20.30
2022-10-03T08:31:04.509Z,20.50
2022-10-03T08:33:49.481Z,20.80
2022-10-03T08:36:31.101Z,21.10
2022-10-03T08:39:07.020Z,21.30
2022-10-03T08:42:04.143Z,21.40
2022-10-03T08:44:58.612Z,21.50
2022-10-03T08:47:28.356Z,21.60
2022-10-03T08:50:13.830Z,21.80
2022-10-03T08:53:02.834Z,22.00
2022-10-03T08:56:07.949Z,22.10
2022-10-03T08:58:40.870Z,22.40
2022-10-03T09:01:16.135Z,22.60
2022-10-03T09:03:52.288Z,22.70
2022-10-03T09:06:58.709Z,22.80
2022-10-03T09:12:47.560Z,23.00
2022-10-03T09:15:33.641Z,23.00
2022-10-03T09:18:13.590Z,23.10
2022-10-03T09:20:53.367Z,23.30
2022-10-03T09:23:20.691Z,23.40
2022-10-03T09:26:20.181Z,23.60
2022-10-03T09:29:06.516Z,23.70
2022-10-03T09:31:37.074Z,23.80
2022-10-03T09:34:26.291Z,23.90
2022-10-03T09:37:13.089Z,24.00
2022-10-03T09:40:02.230Z,24.10
2022-10-03T09:43:07.002Z,24.20
2022-10-03T09:46:12.310Z,24.30
2022-10-03T09:49:02.395Z,24.30
2022-10-03T09:54:57.094Z,24.00
2022-10-03T09:57:43.870Z,24.20
2022-10-03T10:00:24.162Z,24.40
2022-10-03T10:03:03.953Z,24.50
2022-10-03T10:05:57.310Z,24.30
2022-10-03T10:09:06.372Z,23.80
2022-10-03T10:11:43.372Z,23.60
2022-10-03T10:14:29.952Z,23.70
2022-10-03T10:17:16.230Z,23.70
2022-10-03T10:20:07.682Z,23.70
2022-10-03T10:22:38.391Z,24.00
2022-10-03T10:25:43.259Z,24.10
2022-10-03T10:28:29.244Z,24.30
2022-10-03T10:31:37.872Z,24.60
2022-10-03T10:34:42.371Z,24.80
2022-10-03T10:37:33.240Z,25.00
2022-10-03T10:41:03.676Z,25.00
2022-10-03T10:43:58.982Z,25.00
2022-10-03T10:46:41.891Z,25.00
2022-10-03T10:49:46.222Z,25.10
2022-10-03T10:52:28.490Z,25.10
2022-10-03T10:55:36.911Z,25.10
2022-10-03T10:58:16.092Z,25.00
2022-10-03T11:00:58.463Z,24.80
2022-10-03T11:04:03.218Z,24.60
2022-10-03T11:06:47.601Z,24.60
2022-10-03T11:09:37.480Z,24.40
2022-10-03T11:12:23.271Z,24.40
2022-10-03T11:15:28.091Z,24.30
2022-10-03T11:18:21.321Z,24.20
2022-10-03T11:21:10.130Z,23.80
2022-10-03T11:24:07.990Z,23.70
2022-10-03T11:27:02.410Z,23.80
2022-10-03T11:30:03.555Z,24.00
2022-10-03T11:32:46.123Z,24.10
2022-10-03T11:38:30.200Z,24.50
2022-10-03T11:41:12.510Z,24.60
2022-10-03T11:43:58.364Z,24.80
2022-10-03T11:46:34.731Z,24.90
2022-10-03T11:49:13.699Z,24.90
2022-10-03T11:51:53.806Z,25.00
2022-10-03T11:54:31.955Z,25.10
2022-10-03T11:57:10.032Z,24.80
2022-10-03T11:59:49.590Z,24.30
2022-10-03T12:02:19.992Z,23.80
2022-10-03T12:05:02.577Z,23.70
2022-10-03T12:08:07.991Z,23.60
2022-10-03T12:10:40.760Z,23.70
2022-10-03T12:13:18.883Z,23.90
2022-10-03T12:16:12.722Z,24.20
2022-10-03T12:18:43.061Z,24.40
2022-10-03T12:21:32.531Z,24.50
2022-10-03T12:24:25.350Z,24.60
2022-10-03T12:27:01.420Z,24.50
2022-10-03T12:29:32.770Z,24.30
2022-10-03T12:32:26.990Z,24.20
2022-10-03T12:35:20.051Z,23.90
2022-10-03T12:38:03.622Z,23.60
2022-10-03T12:40:38.110Z,23.50
2022-10-03T12:43:35.170Z,23.70
2022-10-03T12:46:44.032Z,23.90
2022-10-03T12:49:43.580Z,24.20
2022-10-03T12:52:37.771Z,24.40
2022-10-03T12:55:23.050Z,24.50
2022-10-03T12:58:07.480Z,24.60
2022-10-03T13:00:49.745Z,24.70
2022-10-03T13:07:03.225Z,24.80
2022-10-03T13:09:58.930Z,24.80
2022-10-03T13:12:43.313Z,24.80
2022-10-03T13:15:17.890Z,24.80
2022-10-03T13:18:02.402Z,24.80
2022-10-03T13:20:39.389Z,24.80
2022-10-03T13:23:07.832Z,24.80
2022-10-03T13:25:46.513Z,24.90
2022-10-03T13:28:22.881Z,24.90
2022-10-03T13:30:58.044Z,24.70
2022-10-03T13:33:58.060Z,24.60
2022-10-03T13:36:34.800Z,24.60
2022-10-03T13:39:21.891Z,24.60
2022-10-03T13:42:11.890Z,24.60
2022-10-03T13:44:57.540Z,24.60
2022-10-03T13:47:36.661Z,24.60
2022-10-03T13:50:13.931Z,24.60
2022-10-03T13:53:06.803Z,24.70
2022-10-03T13:55:42.981Z,24.70
2022-10-03T13:58:54.060Z,24.60
2022-10-03T14:01:48.708Z,24.60
2022-10-03T14:04:47.020Z,24.50
2022-10-03T14:07:26.661Z,24.50
2022-10-03T14:10:14.074Z,24.40
2022-10-03T14:12:55.005Z,24.30
2022-10-03T14:15:29.039Z,24.10
2022-10-03T14:17:59.109Z,24.10
2022-10-03T14:20:53.030Z,24.10
2022-10-03T14:23:37.800Z,24.20
2022-10-03T14:26:11.969Z,24.30
2022-10-03T14:28:52.370Z,24.30
2022-10-03T14:31:32.138Z,24.40
2022-10-03T14:34:02.490Z,24.50
2022-10-03T14:36:52.509Z,24.40
2022-10-03T14:39:38.199Z,24.40
2022-10-03T14:42:25.510Z,24.50
2022-10-03T14:45:03.800Z,24.50
2022-10-03T14:47:39.139Z,24.60
2022-10-03T14:50:14.570Z,24.60
2022-10-03T14:53:15.490Z,24.40
2022-10-03T14:56:05.342Z,24.10
2022-10-03T14:58:54.209Z,23.90
2022-10-03T15:01:28.663Z,23.70
2022-10-03T15:04:10.281Z,23.60
2022-10-03T15:06:45.969Z,23.60
2022-10-03T15:09:24.330Z,23.60
2022-10-03T15:12:01.973Z,23.70
2022-10-03T15:14:33.618Z,23.70
2022-10-03T15:17:04.640Z,23.80
2022-10-03T15:19:44.320Z,23.80
2022-10-03T15:22:20.620Z,23.90
2022-10-03T15:24:48.440Z,23.90
2022-10-03T15:27:21.930Z,23.90
2022-10-03T15:29:56.889Z,23.90
2022-10-03T15:32:29.099Z,23.80
2022-10-03T15:35:00.836Z,23.80
2022-10-03T15:40:31.319Z,23.50
2022-10-03T15:43:11.641Z,23.40
2022-10-03T15:45:39.551Z,23.20
2022-10-03T15:48:13.273Z,23.10
2022-10-03T15:50:43.787Z,23.00
2022-10-03T15:53:36.078Z,23.00
2022-10-03T15:56:19.191Z,22.90
2022-10-03T15:58:55.383Z,22.90
2022-10-03T16:01:29.232Z,22.90
2022-10-03T16:04:23.880Z,22.90
2022-10-03T16:07:10.789Z,22.90
2022-10-03T16:09:46.410Z,22.90
2022-10-03T16:12:35.390Z,22.90
2022-10-03T16:15:17.118Z,22.90
2022-10-03T16:17:49.719Z,22.80
2022-10-03T16:20:23.289Z,22.80
2022-10-03T16:22:56.910Z,22.80
2022-10-03T16:25:29.653Z,22.80
2022-10-03T16:31:05.046Z,22.70
2022-10-03T16:33:43.740Z,22.70
2022-10-03T16:36:18.291Z,22.60
2022-10-03T16:39:04.500Z,22.50
2022-10-03T16:44:21.249Z,22.40
2022-10-03T16:46:49.779Z,22.30
2022-10-03T16:49:47.570Z,22.30
2022-10-03T16:52:23.001Z,22.10
2022-10-03T16:55:15.270Z,22.10
2022-10-03T16:57:50.060Z,22.00
2022-10-03T17:00:23.648Z,21.90
2022-10-03T17:02:51.783Z,21.80
2022-10-03T17:05:19.981Z,21.80
2022-10-03T17:07:51.580Z,21.80
2022-10-03T17:10:34.951Z,21.70
2022-10-03T17:13:19.041Z,21.70
2022-10-03T17:16:01.900Z,21.60
2022-10-03T17:21:29.030Z,21.50
2022-10-03T17:24:34.511Z,21.40
2022-10-03T17:27:10.758Z,21.40
2022-10-03T17:29:47.272Z,21.30
2022-10-03T17:32:23.507Z,21.30
2022-10-03T17:35:07.061Z,21.20
2022-10-03T17:37:48.080Z,21.20
2022-10-03T17:40:42.480Z,21.10
2022-10-03T17:46:43.563Z,20.90
2022-10-03T17:49:13.790Z,20.80
2022-10-03T17:51:47.660Z,20.70
2022-10-03T17:54:29.459Z,20.70
2022-10-03T17:57:14.320Z,20.60
2022-10-03T17:59:48.119Z,20.50
2022-10-03T18:02:29.354Z,20.40
2022-10-03T18:05:28.030Z,20.40
2022-10-03T18:07:57.807Z,20.30
2022-10-03T18:10:34.551Z,20.30
2022-10-03T18:13:05.854Z,20.20
2022-10-03T18:15:52.503Z,20.20
2022-10-03T18:18:38.359Z,20.20
2022-10-03T18:24:12.010Z,20.10
2022-10-03T18:26:46.681Z,20.00
2022-10-03T18:29:23.732Z,19.90
2022-10-03T18:31:57.656Z,19.70
2022-10-03T18:34:36.634Z,19.50
2022-10-03T18:37:37.759Z,19.40
2022-10-03T18:40:13.830Z,19.20
2022-10-03T18:42:41.478Z,19.20
2022-10-03T18:45:20.109Z,19.10
2022-10-03T18:47:56.489Z,19.10
2022-10-03T18:50:40.809Z,19.00
2022-10-03T18:53:20.205Z,19.00
2022-10-03T18:56:02.441Z,19.00
2022-10-03T18:58:44.369Z,19.10
2022-10-03T19:01:14.726Z,19.10
2022-10-03T19:03:57.309Z,19.10
2022-10-03T19:06:30.709Z,19.10
2022-10-03T19:09:09.740Z,19.00
2022-10-03T19:11:40.588Z,19.00
2022-10-03T19:14:28.399Z,19.00
2022-10-03T19:17:08.129Z,19.00
2022-10-03T19:19:58.732Z,19.00
2022-10-03T19:22:39.008Z,19.00
2022-10-03T19:25:17.579Z,19.00
2022-10-03T19:28:08.833Z,19.00
2022-10-03T19:30:37.351Z,18.90
2022-10-03T19:33:09.699Z,18.80
2022-10-03T19:35:46.522Z,18.80
2022-10-03T19:38:33.246Z,18.80
2022-10-03T19:41:15.126Z,18.80
2022-10-03T19:43:50.217Z,18.80
2022-10-03T19:46:51.391Z,18.70
2022-10-03T19:49:34.380Z,18.70
2022-10-03T19:52:34.699Z,18.70
2022-10-03T19:55:40.988Z,18.60
2022-10-03T19:58:08.619Z,18.60
2022-10-03T20:00:40.633Z,18.60
2022-10-03T20:03:24.129Z,18.50
2022-10-03T20:06:08.999Z,18.50
2022-10-03T20:08:51.439Z,18.50
2022-10-03T20:11:46.795Z,18.40
2022-10-03T20:14:32.250Z,18.30
2022-10-03T20:17:03.638Z,18.30
2022-10-03T20:19:55.038Z,18.30
2022-10-03T20:22:25.510Z,18.30
2022-10-03T20:24:53.169Z,18.20
2022-10-03T20:27:37.178Z,18.20
2022-10-03T20:30:07.721Z,18.20
2022-10-03T20:32:38.759Z,18.10
2022-10-03T20:35:06.969Z,18.10
2022-10-03T20:38:06.401Z,18.10
2022-10-03T20:40:37.761Z,18.00
2022-10-03T20:43:41.531Z,18.00
2022-10-03T20:46:19.016Z,18.00
2022-10-03T20:48:52.660Z,18.00
2022-10-03T20:51:23.136Z,17.90
2022-10-03T20:53:54.996Z,17.90
2022-10-03T20:56:31.740Z,17.80
2022-10-03T20:59:00.998Z,17.80
2022-10-03T21:01:31.673Z,17.80
2022-10-03T21:04:28.111Z,17.80
2022-10-03T21:07:04.649Z,17.80
2022-10-03T21:09:49.599Z,17.70
2022-10-03T21:13:00.348Z,17.70
2022-10-03T21:15:46.512Z,17.60
2022-10-03T21:18:41.500Z,17.60
2022-10-03T21:21:42.356Z,17.50
2022-10-03T21:24:37.499Z,17.50
2022-10-03T21:27:13.611Z,17.40
2022-10-03T21:30:02.525Z,17.40
2022-10-03T21:32:44.139Z,17.40
2022-10-03T21:35:17.049Z,17.30
2022-10-03T21:38:23.981Z,17.30
2022-10-03T21:41:23.569Z,17.30
2022-10-03T21:44:05.881Z,17.20
2022-10-03T21:46:55.668Z,17.20
2022-10-03T21:49:53.214Z,17.20
2022-10-03T21:52:39.219Z,17.20
2022-10-03T21:55:52.266Z,17.10
2022-10-03T21:58:55.590Z,17.10
2022-10-03T22:01:49.044Z,17.10
2022-10-03T22:04:48.651Z,17.00
2022-10-03T22:07:18.564Z,17.00
2022-10-03T22:09:54.287Z,16.90
2022-10-03T22:12:22.828Z,16.90
2022-10-03T22:14:56.320Z,16.90
2022-10-03T22:17:51.280Z,16.80
2022-10-03T22:20:23.212Z,16.80
2022-10-03T22:23:09.391Z,16.80
2022-10-03T22:25:44.622Z,16.80
2022-10-03T22:28:30.192Z,16.80
2022-10-03T22:31:09.267Z,16.80
2022-10-03T22:33:45.472Z,16.80
2022-10-03T22:36:13.234Z,16.80
2022-10-03T22:38:41.381Z,16.70
2022-10-03T22:41:15.392Z,16.80
2022-10-03T22:43:43.900Z,16.70
2022-10-03T22:46:16.316Z,16.70
2022-10-03T22:48:48.041Z,16.70
2022-10-03T22:51:18.984Z,16.70
2022-10-03T22:53:58.390Z,16.60
2022-10-03T22:56:38.292Z,16.60
2022-10-03T22:59:12.931Z,16.60
2022-10-03T23:01:45.892Z,16.50
2022-10-03T23:04:19.489Z,16.40
2022-10-03T23:06:57.881Z,16.40
2022-10-03T23:09:29.082Z,16.30
2022-10-03T23:11:58.032Z,16.30
2022-10-03T23:14:33.501Z,16.20
2022-10-03T23:17:18.221Z,16.20
2022-10-03T23:19:52.000Z,16.10
2022-10-03T23:22:23.291Z,16.20
2022-10-03T23:25:02.841Z,16.20
2022-10-03T23:27:57.979Z,16.10
2022-10-03T23:30:25.478Z,16.10
2022-10-03T23:32:54.920Z,16.00
2022-10-03T23:35:30.970Z,16.00
2022-10-03T23:38:00.059Z,16.00
2022-10-03T23:40:47.391Z,16.00
2022-10-03T23:43:36.194Z,16.00
2022-10-03T23:46:09.095Z,15.90
2022-10-03T23:49:01.914Z,15.90
2022-10-03T23:51:34.012Z,15.90
2022-10-03T23:54:05.328Z,15.90
2022-10-03T23:56:43.191Z,15.90
2022-10-03T23:59:16.451Z,15.90
